createdAt,value
2022-12-11T00:00:06.058Z,53.50
2022-12-11T00:02:35.326Z,48.30
2022-12-11T00:05:04.150Z,50.80
2022-12-11T00:07:32.449Z,55.80
2022-12-11T00:10:01.217Z,56.90
2022-12-11T00:12:32.478Z,51.80
2022-12-11T00:15:01.580Z,56.60
2022-12-11T00:17:30.147Z,59.00
2022-12-11T00:19:58.612Z,57.10
2022-12-11T00:22:26.941Z,58.30
2022-12-11T00:24:55.247Z,59.30
2022-12-11T00:27:24.258Z,59.40
2022-12-11T00:29:52.531Z,55.00
2022-12-11T00:32:20.785Z,56.80
2022-12-11T00:34:49.063Z,55.50
2022-12-11T00:37:17.557Z,56.70
2022-12-11T00:39:46.081Z,55.50
2022-12-11T00:42:14.588Z,60.30
2022-12-11T00:44:43.078Z,55.90
2022-12-11T00:47:11.338Z,54.00
2022-12-11T00:49:39.657Z,52.20
2022-12-11T00:52:08.190Z,53.90
2022-12-11T00:54:36.643Z,58.80
2022-12-11T00:57:04.925Z,59.50
2022-12-11T00:59:33.215Z,53.00
2022-12-11T01:02:01.517Z,53.50
2022-12-11T01:04:29.802Z,47.50
2022-12-11T01:06:58.266Z,50.70
2022-12-11T01:09:45.221Z,47.30
2022-12-11T01:12:13.493Z,50.40
2022-12-11T01:14:41.872Z,50.60
2022-12-11T01:17:10.159Z,50.20
2022-12-11T01:19:38.390Z,45.60
2022-12-11T01:22:06.726Z,47.40
2022-12-11T01:24:34.956Z,41.70
2022-12-11T01:27:03.602Z,43.90
2022-12-11T01:29:32.598Z,48.40
2022-12-11T01:32:00.847Z,39.20
2022-12-11T01:34:30.641Z,42.50
2022-12-11T01:36:59.415Z,45.10
2022-12-11T01:39:27.756Z,45.10
2022-12-11T01:42:00.599Z,42.80
2022-12-11T01:44:32.053Z,41.70
2022-12-11T01:47:00.539Z,42.20
2022-12-11T01:49:29.509Z,36.60
2022-12-11T01:52:08.232Z,39.50
2022-12-11T01:54:36.604Z,39.20
2022-12-11T01:57:08.905Z,41.10
2022-12-11T02:02:14.047Z,51.60
2022-12-11T02:04:44.181Z,49.30
2022-12-11T02:07:12.741Z,55.80
2022-12-11T02:09:44.691Z,51.20
2022-12-11T02:12:23.003Z,52.80
2022-12-11T02:15:08.939Z,52.70
2022-12-11T02:18:03.393Z,57.50
2022-12-11T02:20:53.966Z,57.60
2022-12-11T02:23:45.674Z,61.80
2022-12-11T02:26:23.895Z,51.50
2022-12-11T02:29:01.028Z,54.50
2022-12-11T02:31:47.773Z,54.00
2022-12-11T02:34:21.965Z,48.30
2022-12-11T02:36:54.426Z,48.90
2022-12-11T02:39:27.081Z,46.90
2022-12-11T02:41:56.677Z,45.70
2022-12-11T02:44:29.511Z,51.00
2022-12-11T02:46:58.534Z,48.40
2022-12-11T02:49:28.266Z,46.50
2022-12-11T02:51:59.275Z,47.30
2022-12-11T02:54:32.143Z,47.10
2022-12-11T02:57:14.084Z,43.30
2022-12-11T02:59:45.192Z,48.50
2022-12-11T03:02:17.288Z,44.90
2022-12-11T03:07:27.806Z,44.10
2022-12-11T03:09:56.185Z,43.80
2022-12-11T03:12:30.155Z,46.60
2022-12-11T03:15:01.299Z,46.30
2022-12-11T03:17:43.064Z,45.00
2022-12-11T03:20:34.969Z,43.60
2022-12-11T03:23:24.506Z,44.40
2022-12-11T03:26:16.017Z,38.30
2022-12-11T03:29:00.177Z,36.90
2022-12-11T03:31:40.344Z,38.20
2022-12-11T03:34:23.956Z,33.40
2022-12-11T03:36:55.828Z,29.60
2022-12-11T03:39:39.318Z,31.20
2022-12-11T03:42:12.134Z,32.10
2022-12-11T03:44:43.303Z,30.60
2022-12-11T03:47:15.664Z,31.70
2022-12-11T03:49:46.087Z,30.70
2022-12-11T03:52:15.877Z,28.00
2022-12-11T03:54:47.820Z,27.70
2022-12-11T03:57:19.593Z,28.20
2022-12-11T03:59:48.990Z,29.40
2022-12-11T04:02:17.310Z,29.00
2022-12-11T04:04:45.789Z,29.00
2022-12-11T04:07:14.159Z,24.00
2022-12-11T04:09:42.417Z,26.20
2022-12-11T04:12:10.650Z,25.70
2022-12-11T04:14:57.796Z,25.90
2022-12-11T04:17:44.764Z,23.60
2022-12-11T04:20:32.362Z,30.30
2022-12-11T04:23:22.361Z,25.60
2022-12-11T04:25:51.020Z,26.20
2022-12-11T04:28:19.518Z,27.80
2022-12-11T04:30:49.940Z,28.80
2022-12-11T04:33:18.547Z,31.10
2022-12-11T04:35:47.118Z,33.60
2022-12-11T04:38:15.428Z,31.50
2022-12-11T04:40:43.771Z,30.40
2022-12-11T04:43:12.075Z,32.90
2022-12-11T04:45:40.311Z,34.20
2022-12-11T04:48:08.656Z,34.80
2022-12-11T04:50:36.904Z,35.00
2022-12-11T04:53:05.279Z,36.00
2022-12-11T04:55:33.519Z,30.90
2022-12-11T04:58:01.761Z,38.20
2022-12-11T05:00:30.182Z,36.00
2022-12-11T05:02:58.445Z,34.10
2022-12-11T05:05:26.877Z,35.80
2022-12-11T05:07:55.225Z,36.90
2022-12-11T05:10:23.678Z,31.80
2022-12-11T05:12:52.018Z,30.00
2022-12-11T05:15:20.252Z,25.00
2022-12-11T05:17:48.669Z,23.90
2022-12-11T05:20:17.012Z,25.70
2022-12-11T05:22:45.308Z,21.70
2022-12-11T05:25:13.866Z,20.90
2022-12-11T05:27:42.781Z,16.80
2022-12-11T05:30:11.355Z,14.20
2022-12-11T05:32:39.725Z,11.10
2022-12-11T05:35:08.579Z,8.70
2022-12-11T05:37:37.055Z,8.60
2022-12-11T05:40:06.608Z,8.10
2022-12-11T05:42:34.981Z,8.50
2022-12-11T05:45:03.694Z,10.30
2022-12-11T05:47:32.007Z,7.40
2022-12-11T05:50:00.260Z,7.80
2022-12-11T05:52:28.577Z,7.70
2022-12-11T05:54:57.017Z,8.00
2022-12-11T05:57:25.317Z,8.10
2022-12-11T05:59:53.595Z,7.10
2022-12-11T06:02:22.368Z,7.30
2022-12-11T06:04:50.828Z,6.30
2022-12-11T06:07:19.076Z,5.60
2022-12-11T06:09:47.439Z,5.90
2022-12-11T06:12:15.658Z,5.60
2022-12-11T06:14:43.898Z,4.90
2022-12-11T06:17:12.138Z,5.60
2022-12-11T06:19:40.721Z,5.50
2022-12-11T06:22:08.966Z,5.10
2022-12-11T06:24:37.492Z,4.60
2022-12-11T06:27:05.795Z,4.50
2022-12-11T06:29:34.111Z,4.50
2022-12-11T06:32:02.811Z,5.40
2022-12-11T06:34:31.251Z,5.40
2022-12-11T06:36:59.644Z,5.50
2022-12-11T06:39:27.934Z,6.40
2022-12-11T06:41:56.345Z,6.50
2022-12-11T06:44:25.220Z,6.30
2022-12-11T06:46:53.565Z,5.50
2022-12-11T06:49:21.967Z,5.30
2022-12-11T06:51:50.215Z,5.20
2022-12-11T06:54:18.741Z,4.60
2022-12-11T06:56:47.406Z,5.60
2022-12-11T06:59:15.584Z,6.20
2022-12-11T07:01:43.853Z,7.40
2022-12-11T07:04:12.175Z,6.00
2022-12-11T07:06:40.433Z,6.30
2022-12-11T07:09:08.735Z,6.80
2022-12-11T07:11:37.205Z,7.30
2022-12-11T07:14:05.428Z,8.50
2022-12-11T07:16:33.771Z,6.50
2022-12-11T07:19:02.261Z,6.90
2022-12-11T07:21:30.516Z,6.30
2022-12-11T07:23:59.173Z,6.80
2022-12-11T07:26:28.678Z,9.00
2022-12-11T07:28:58.870Z,9.40
2022-12-11T07:31:30.290Z,6.30
2022-12-11T07:34:05.334Z,7.00
2022-12-11T07:36:34.832Z,5.70
2022-12-11T07:39:03.280Z,7.20
2022-12-11T07:41:32.015Z,4.90
2022-12-11T07:44:01.456Z,5.40
2022-12-11T07:46:32.025Z,4.70
2022-12-11T07:49:03.691Z,5.60
2022-12-11T07:51:49.448Z,5.30
2022-12-11T07:54:17.902Z,4.80
2022-12-11T07:56:52.938Z,5.20
2022-12-11T07:59:22.514Z,6.10
2022-12-11T08:01:50.744Z,6.00
2022-12-11T08:04:19.017Z,7.40
2022-12-11T08:06:47.931Z,6.10
2022-12-11T08:09:21.065Z,9.50
2022-12-11T08:23:12.138Z,6.70
2022-12-11T08:25:40.433Z,5.80
2022-12-11T08:28:08.637Z,4.60
2022-12-11T08:30:40.177Z,4.90
2022-12-11T08:33:08.497Z,5.60
2022-12-11T08:35:41.523Z,4.70
2022-12-11T08:38:09.874Z,6.30
2022-12-11T08:40:38.229Z,6.40
2022-12-11T08:43:06.549Z,6.20
2022-12-11T08:45:34.824Z,4.80
2022-12-11T08:48:03.109Z,5.40
2022-12-11T08:50:31.444Z,5.00
2022-12-11T08:52:59.865Z,4.40
2022-12-11T08:55:28.294Z,4.10
2022-12-11T08:57:56.585Z,3.60
2022-12-11T09:00:24.924Z,5.30
2022-12-11T09:02:53.267Z,5.90
2022-12-11T09:05:21.538Z,4.90
2022-12-11T09:07:49.952Z,8.10
2022-12-11T09:10:18.568Z,4.00
2022-12-11T09:12:47.061Z,5.80
2022-12-11T09:15:15.329Z,5.30
2022-12-11T09:17:43.809Z,6.20
2022-12-11T09:20:12.235Z,5.00
2022-12-11T09:22:40.619Z,6.10
2022-12-11T09:25:09.856Z,5.00
2022-12-11T09:27:38.431Z,5.00
2022-12-11T09:30:08.310Z,6.30
2022-12-11T09:32:36.655Z,5.60
2022-12-11T09:35:05.470Z,7.20
2022-12-11T09:37:34.362Z,7.00
2022-12-11T09:40:07.576Z,5.20
2022-12-11T09:42:47.081Z,6.30
2022-12-11T09:45:16.706Z,7.90
2022-12-11T09:47:50.267Z,5.10
2022-12-11T09:50:30.241Z,7.20
2022-12-11T09:53:21.943Z,6.50
2022-12-11T09:56:04.787Z,6.00
2022-12-11T09:58:35.980Z,7.10
2022-12-11T10:01:31.338Z,8.10
2022-12-11T10:04:19.869Z,6.60
2022-12-11T10:07:18.479Z,7.10
2022-12-11T10:09:53.645Z,6.30
2022-12-11T10:12:27.940Z,8.00
2022-12-11T10:15:20.163Z,7.80
2022-12-11T10:17:48.612Z,6.20
2022-12-11T10:20:20.899Z,6.80
2022-12-11T10:25:42.052Z,6.30
2022-12-11T10:28:19.075Z,5.30
2022-12-11T10:31:18.712Z,5.10
2022-12-11T10:34:15.261Z,4.40
2022-12-11T10:52:39.204Z,7.40
2022-12-11T10:55:38.015Z,5.80
2022-12-11T10:58:06.821Z,6.70
2022-12-11T11:00:42.383Z,5.10
2022-12-11T11:03:26.262Z,6.10
2022-12-11T11:06:17.279Z,5.40
2022-12-11T11:08:48.788Z,6.20
2022-12-11T11:11:22.372Z,7.90
2022-12-11T11:13:51.212Z,4.60
2022-12-11T11:16:22.502Z,4.40
2022-12-11T11:18:56.039Z,6.10
2022-12-11T11:21:26.610Z,4.40
2022-12-11T11:23:54.964Z,3.70
2022-12-11T11:26:34.201Z,6.40
2022-12-11T11:29:25.742Z,7.60
2022-12-11T11:31:54.103Z,7.70
2022-12-11T11:34:22.512Z,9.10
2022-12-11T11:37:23.373Z,8.50
2022-12-11T11:39:55.646Z,8.40
2022-12-11T11:42:34.959Z,7.80
2022-12-11T11:45:10.977Z,7.30
2022-12-11T11:47:50.976Z,7.70
2022-12-11T11:50:24.695Z,5.70
2022-12-11T11:53:12.541Z,6.60
2022-12-11T11:55:59.146Z,7.90
2022-12-11T11:58:56.581Z,8.70
2022-12-11T12:01:26.199Z,5.60
2022-12-11T12:03:55.540Z,5.20
2022-12-11T12:06:29.057Z,4.40
2022-12-11T12:09:19.385Z,5.60
2022-12-11T12:11:59.900Z,4.10
2022-12-11T12:17:55.724Z,4.90
2022-12-11T12:20:28.453Z,6.00
2022-12-11T12:23:36.861Z,4.90
2022-12-11T12:26:23.825Z,4.50
2022-12-11T12:29:20.966Z,5.80
2022-12-11T12:31:49.675Z,6.30
2022-12-11T12:34:40.076Z,5.50
2022-12-11T12:37:20.816Z,5.80
2022-12-11T12:39:52.348Z,5.70
2022-12-11T12:42:43.485Z,5.70
2022-12-11T12:45:14.799Z,3.60
2022-12-11T12:47:50.393Z,5.60
2022-12-11T12:50:30.086Z,4.20
2022-12-11T12:52:59.003Z,5.90
2022-12-11T12:55:31.976Z,3.50
2022-12-11T12:58:08.077Z,5.20
2022-12-11T13:00:42.912Z,6.30
2022-12-11T13:03:27.661Z,5.80
2022-12-11T13:06:09.618Z,4.70
2022-12-11T13:08:42.270Z,3.60
2022-12-11T13:11:13.445Z,3.80
2022-12-11T13:13:43.622Z,3.60
2022-12-11T13:16:18.125Z,3.90
2022-12-11T13:18:48.466Z,4.50
2022-12-11T13:21:40.632Z,6.40
2022-12-11T13:24:15.080Z,5.20
2022-12-11T13:26:44.290Z,5.10
2022-12-11T13:29:35.736Z,5.50
2022-12-11T13:32:10.323Z,5.80
2022-12-11T13:34:42.275Z,5.10
2022-12-11T13:37:27.071Z,7.00
2022-12-11T13:39:56.727Z,8.10
2022-12-11T13:42:33.337Z,5.70
2022-12-11T13:45:03.632Z,6.20
2022-12-11T13:47:33.114Z,5.60
2022-12-11T13:50:25.516Z,4.60
2022-12-11T13:52:59.488Z,4.60
2022-12-11T13:55:31.055Z,4.70
2022-12-11T13:57:59.856Z,5.60
2022-12-11T14:00:33.072Z,5.60
2022-12-11T14:03:07.559Z,5.60
2022-12-11T14:05:36.814Z,4.00
2022-12-11T14:08:11.797Z,5.70
2022-12-11T14:10:40.555Z,4.50
2022-12-11T14:13:31.488Z,5.20
2022-12-11T14:16:00.412Z,5.20
2022-12-11T14:18:31.929Z,4.40
2022-12-11T14:21:06.642Z,5.70
2022-12-11T14:23:36.785Z,9.10
2022-12-11T14:26:18.228Z,6.50
2022-12-11T14:28:46.637Z,5.50
2022-12-11T14:31:22.321Z,7.90
2022-12-11T14:33:58.230Z,5.10
2022-12-11T14:36:28.342Z,5.40
2022-12-11T14:39:03.555Z,5.00
2022-12-11T14:41:45.181Z,5.80
2022-12-11T14:44:16.943Z,5.80
2022-12-11T14:46:50.527Z,7.70
2022-12-11T14:49:35.352Z,6.20
2022-12-11T14:52:05.601Z,5.90
2022-12-11T14:54:42.482Z,7.00
2022-12-11T14:57:20.388Z,7.80
2022-12-11T14:59:51.969Z,8.30
2022-12-11T15:02:26.136Z,7.90
2022-12-11T15:05:18.974Z,5.20
2022-12-11T15:08:13.678Z,8.30
2022-12-11T15:10:58.964Z,7.20
2022-12-11T15:13:27.767Z,6.70
2022-12-11T15:15:57.319Z,7.20
2022-12-11T15:18:38.766Z,6.20
2022-12-11T15:21:10.496Z,7.00
2022-12-11T15:24:00.238Z,7.70
2022-12-11T15:26:48.785Z,6.80
2022-12-11T15:29:40.661Z,6.00
2022-12-11T15:32:09.020Z,6.90
2022-12-11T15:34:54.749Z,7.50
2022-12-11T15:37:29.166Z,6.40
2022-12-11T15:40:00.142Z,7.10
2022-12-11T15:42:35.367Z,7.90
2022-12-11T15:45:07.183Z,9.80
2022-12-11T15:47:35.670Z,9.00
2022-12-11T15:50:26.791Z,7.90
2022-12-11T15:52:57.047Z,5.70
2022-12-11T15:55:34.491Z,4.20
2022-12-11T15:58:05.962Z,5.70
2022-12-11T16:00:34.376Z,5.90
2022-12-11T16:03:02.689Z,4.50
2022-12-11T16:05:31.329Z,6.10
2022-12-11T16:07:59.876Z,6.90
2022-12-11T16:10:28.424Z,8.70
2022-12-11T16:12:59.759Z,6.60
2022-12-11T16:15:29.568Z,4.30
2022-12-11T16:18:03.749Z,5.20
2022-12-11T16:20:33.041Z,6.10
2022-12-11T16:23:01.694Z,8.30
2022-12-11T16:25:31.770Z,5.50
2022-12-11T16:28:01.738Z,5.90
2022-12-11T16:30:30.230Z,4.00
2022-12-11T16:32:58.439Z,5.10
2022-12-11T16:35:26.777Z,5.80
2022-12-11T16:37:56.258Z,5.90
2022-12-11T16:40:24.534Z,4.80
2022-12-11T16:42:53.057Z,6.90
2022-12-11T16:45:24.063Z,5.70
2022-12-11T16:47:53.560Z,6.20
2022-12-11T16:50:23.598Z,5.70
2022-12-11T16:52:51.926Z,7.40
2022-12-11T16:55:22.348Z,7.30
2022-12-11T16:57:50.670Z,5.50
2022-12-11T17:00:19.845Z,6.00
2022-12-11T17:02:48.271Z,7.70
2022-12-11T17:05:17.242Z,4.60
2022-12-11T17:07:45.487Z,6.40
2022-12-11T17:10:14.319Z,7.80
2022-12-11T17:12:42.697Z,8.00
2022-12-11T17:15:11.474Z,7.90
2022-12-11T17:17:40.368Z,6.40
2022-12-11T17:20:10.523Z,8.90
2022-12-11T17:22:38.803Z,11.10
2022-12-11T17:25:07.812Z,8.40
2022-12-11T17:27:36.158Z,6.30
2022-12-11T17:30:05.040Z,4.10
2022-12-11T17:32:33.399Z,5.60
2022-12-11T17:35:01.720Z,6.30
2022-12-11T17:37:30.689Z,6.80
2022-12-11T17:39:59.327Z,6.40
2022-12-11T17:42:27.539Z,5.00
2022-12-11T17:44:55.833Z,7.00
2022-12-11T17:47:24.470Z,5.70
2022-12-11T17:49:52.698Z,5.10
2022-12-11T17:52:20.940Z,7.20
2022-12-11T17:54:49.828Z,8.50
2022-12-11T17:57:18.134Z,8.40
2022-12-11T17:59:46.461Z,9.20
2022-12-11T18:02:15.011Z,7.10
2022-12-11T18:04:43.594Z,10.00
2022-12-11T18:07:11.969Z,4.60
2022-12-11T18:09:40.962Z,5.70
2022-12-11T18:12:09.977Z,8.00
2022-12-11T18:14:38.522Z,7.80
2022-12-11T18:17:07.487Z,6.50
2022-12-11T18:19:37.383Z,5.80
2022-12-11T18:22:07.449Z,7.70
2022-12-11T18:24:35.764Z,6.20
2022-12-11T18:27:04.215Z,5.40
2022-12-11T18:29:32.483Z,6.00
2022-12-11T18:32:00.782Z,3.70
2022-12-11T18:34:29.129Z,6.00
2022-12-11T18:36:57.605Z,6.20
2022-12-11T18:39:26.272Z,3.80
2022-12-11T18:42:24.376Z,4.90
2022-12-11T18:44:43.678Z,8.20
2022-12-11T18:47:12.394Z,7.30
2022-12-11T18:49:40.670Z,6.60
2022-12-11T18:52:09.519Z,6.30
2022-12-11T18:54:38.103Z,6.70
2022-12-11T18:57:06.917Z,4.60
2022-12-11T18:59:35.761Z,16.30
2022-12-11T19:02:04.459Z,8.30
2022-12-11T19:04:32.851Z,10.80
2022-12-11T19:07:01.207Z,8.80
2022-12-11T19:09:32.781Z,8.00
2022-12-11T19:12:05.731Z,7.00
2022-12-11T19:14:34.697Z,7.80
2022-12-11T19:17:03.499Z,6.50
2022-12-11T19:19:31.875Z,6.40
2022-12-11T19:22:00.388Z,5.20
2022-12-11T19:24:28.819Z,7.20
2022-12-11T19:26:57.992Z,5.70
2022-12-11T19:29:29.779Z,9.10
2022-12-11T19:31:59.184Z,9.30
2022-12-11T19:34:27.593Z,5.20
2022-12-11T19:36:56.642Z,6.40
2022-12-11T19:39:25.248Z,6.50
2022-12-11T19:41:53.507Z,8.10
2022-12-11T19:44:21.917Z,7.30
2022-12-11T19:46:50.516Z,8.10
2022-12-11T19:49:18.788Z,5.20
2022-12-11T19:51:47.325Z,5.20
2022-12-11T19:54:17.862Z,8.50
2022-12-11T19:56:46.304Z,9.60
2022-12-11T19:59:17.714Z,5.20
2022-12-11T20:01:48.308Z,4.50
2022-12-11T20:04:17.823Z,5.30
2022-12-11T20:06:48.057Z,5.90
2022-12-11T20:09:17.063Z,3.70
2022-12-11T20:11:45.973Z,5.20
2022-12-11T20:14:23.262Z,7.50
2022-12-11T20:17:10.922Z,4.90
2022-12-11T20:19:41.330Z,4.90
2022-12-11T20:22:10.513Z,7.60
2022-12-11T20:24:38.852Z,5.80
2022-12-11T20:27:07.291Z,7.20
2022-12-11T20:29:35.690Z,5.60
2022-12-11T20:32:05.161Z,5.30
2022-12-11T20:34:33.528Z,5.50
2022-12-11T20:37:01.818Z,4.40
2022-12-11T20:39:32.125Z,6.50
2022-12-11T20:42:01.299Z,6.10
2022-12-11T20:44:29.582Z,5.50
2022-12-11T20:46:57.993Z,3.90
2022-12-11T20:49:26.567Z,5.80
2022-12-11T20:51:54.968Z,4.90
2022-12-11T20:54:23.249Z,6.20
2022-12-11T20:56:52.084Z,4.90
2022-12-11T20:59:20.559Z,8.80
2022-12-11T21:01:49.630Z,7.30
2022-12-11T21:04:18.250Z,6.80
2022-12-11T21:06:47.069Z,5.40
2022-12-11T21:09:19.411Z,6.50
2022-12-11T21:11:49.097Z,4.40
2022-12-11T21:14:18.718Z,4.60
2022-12-11T21:16:47.565Z,5.10
2022-12-11T21:19:20.321Z,6.10
2022-12-11T21:21:49.758Z,5.60
2022-12-11T21:24:21.381Z,4.40
2022-12-11T21:26:50.075Z,3.50
2022-12-11T21:29:18.709Z,6.60
2022-12-11T21:31:47.354Z,6.00
2022-12-11T21:34:19.357Z,8.80
2022-12-11T21:36:57.162Z,6.20
2022-12-11T21:39:27.034Z,4.60
2022-12-11T21:41:55.979Z,5.60
2022-12-11T21:47:13.369Z,8.60
2022-12-11T21:49:42.299Z,5.20
2022-12-11T21:52:11.107Z,5.60
2022-12-11T21:54:39.632Z,4.70
2022-12-11T21:57:07.884Z,6.60
2022-12-11T21:59:36.445Z,5.00
2022-12-11T22:02:04.720Z,5.30
2022-12-11T22:04:33.264Z,8.00
2022-12-11T22:07:01.963Z,5.30
2022-12-11T22:09:30.542Z,5.90
2022-12-11T22:11:59.062Z,5.40
2022-12-11T22:14:27.423Z,5.60
2022-12-11T22:16:55.806Z,4.70
2022-12-11T22:19:27.854Z,6.20
2022-12-11T22:22:00.556Z,4.90
2022-12-11T22:24:28.920Z,7.70
2022-12-11T22:26:57.337Z,10.30
2022-12-11T22:29:25.647Z,6.60
2022-12-11T22:31:54.693Z,4.80
2022-12-11T22:34:22.994Z,6.00
2022-12-11T22:36:51.779Z,4.80
2022-12-11T22:39:20.042Z,3.50
2022-12-11T22:41:48.623Z,5.80
2022-12-11T22:44:20.521Z,4.50
2022-12-11T22:46:50.524Z,3.80
2022-12-11T22:49:20.382Z,5.50
2022-12-11T22:51:49.520Z,6.30
2022-12-11T22:54:17.798Z,4.10
2022-12-11T22:56:46.212Z,5.00
2022-12-11T22:59:14.699Z,7.70
2022-12-11T23:01:43.274Z,5.60
2022-12-11T23:04:11.612Z,5.40
2022-12-11T23:06:39.981Z,9.20
2022-12-11T23:09:08.355Z,4.30
2022-12-11T23:11:38.441Z,5.50
2022-12-11T23:14:08.811Z,5.50
2022-12-11T23:16:37.373Z,8.40
2022-12-11T23:19:05.934Z,4.80
2022-12-11T23:21:34.796Z,3.30
2022-12-11T23:24:04.092Z,4.00
2022-12-11T23:26:32.956Z,5.10
2022-12-11T23:29:02.213Z,5.40
2022-12-11T23:31:31.256Z,7.80
2022-12-11T23:34:00.228Z,3.60
2022-12-11T23:36:29.356Z,2.60
2022-12-11T23:38:57.781Z,3.60
2022-12-11T23:41:26.035Z,5.10
2022-12-11T23:43:54.369Z,4.60
2022-12-11T23:46:24.530Z,7.00
2022-12-11T23:48:53.295Z,3.20
2022-12-11T23:51:24.408Z,4.40
2022-12-11T23:53:53.233Z,3.90
2022-12-11T23:56:27.719Z,4.50
2022-12-11T23:58:56.742Z,4.20
